createdAt,value
2022-07-27T00:03:15.789Z,1.00
2022-07-27T00:13:18.868Z,0.98
2022-07-27T00:23:23.301Z,1.02
2022-07-27T00:33:26.383Z,1.23
2022-07-27T00:43:30.776Z,1.20
2022-07-27T00:53:33.889Z,1.30
2022-07-27T01:03:38.393Z,1.30
2022-07-27T01:13:43.888Z,1.30
2022-07-27T01:23:48.314Z,1.30
2022-07-27T01:33:51.403Z,1.13
2022-07-27T01:43:55.819Z,1.20
2022-07-27T01:53:58.868Z,1.02
2022-07-27T02:04:03.328Z,1.20
2022-07-27T02:14:06.391Z,1.00
2022-07-27T02:24:10.986Z,1.40
2022-07-27T02:34:14.229Z,1.20
2022-07-27T02:44:18.639Z,1.42
2022-07-27T02:54:24.506Z,1.50
2022-07-27T03:04:29.032Z,1.45
2022-07-27T03:14:32.316Z,1.50
2022-07-27T03:24:36.964Z,1.60
2022-07-27T03:34:40.009Z,1.60
2022-07-27T03:44:44.498Z,1.15
2022-07-27T03:54:48.153Z,1.30
2022-07-27T04:04:52.721Z,1.40
2022-07-27T04:14:55.739Z,1.42
2022-07-27T04:25:00.432Z,1.40
2022-07-27T04:35:03.501Z,1.88
2022-07-27T04:45:08.934Z,1.65
2022-07-27T04:55:14.219Z,1.30
2022-07-27T05:05:18.643Z,1.55
2022-07-27T05:15:21.958Z,1.42
2022-07-27T05:25:26.505Z,1.50
2022-07-27T05:35:29.551Z,1.65
2022-07-27T05:45:34.027Z,1.90
2022-07-27T05:55:37.148Z,1.40
2022-07-27T06:05:41.574Z,1.45
2022-07-27T06:15:44.617Z,1.30
2022-07-27T06:25:50.272Z,1.13
2022-07-27T06:35:53.282Z,1.40
2022-07-27T06:45:59.375Z,1.40
2022-07-27T06:56:04.018Z,1.60
2022-07-27T07:06:08.504Z,1.38
2022-07-27T07:16:11.626Z,1.20
2022-07-27T07:26:16.129Z,1.10
2022-07-27T07:36:19.261Z,1.20
2022-07-27T07:46:23.937Z,1.27
2022-07-27T07:56:27.398Z,1.30
2022-07-27T08:06:31.869Z,1.58
2022-07-27T08:16:35.033Z,1.48
2022-07-27T08:26:39.519Z,1.42
2022-07-27T08:36:42.543Z,1.75
2022-07-27T08:46:47.380Z,1.30
2022-07-27T08:56:50.546Z,1.60
2022-07-27T09:06:54.988Z,1.50
2022-07-27T09:27:31.737Z,1.90
2022-07-27T09:37:36.740Z,1.58
2022-07-27T09:47:41.572Z,1.30
2022-07-27T09:57:54.721Z,1.58
2022-07-27T10:08:00.609Z,1.63
2022-07-27T10:18:11.842Z,1.88
2022-07-27T10:28:17.688Z,1.60
2022-07-27T10:38:21.658Z,1.83
2022-07-27T10:48:45.959Z,1.90
2022-07-27T10:58:52.531Z,1.90
2022-07-27T11:09:46.236Z,1.90
2022-07-27T11:19:23.859Z,1.70
2022-07-27T11:29:28.404Z,1.80
2022-07-27T11:50:07.218Z,1.77
2022-07-27T12:00:11.831Z,1.90
2022-07-27T12:10:16.446Z,1.88
2022-07-27T12:20:21.117Z,1.90
2022-07-27T12:30:32.756Z,2.03
2022-07-27T12:40:43.740Z,2.03
2022-07-27T12:50:57.728Z,2.13
2022-07-27T13:01:01.089Z,1.80
2022-07-27T13:11:05.548Z,1.80
2022-07-27T13:21:08.674Z,2.13
2022-07-27T13:31:13.186Z,2.00
2022-07-27T13:41:16.332Z,2.05
2022-07-27T13:51:20.769Z,1.80
2022-07-27T14:01:24.078Z,2.00
2022-07-27T14:11:28.742Z,1.77
2022-07-27T14:21:32.720Z,2.00
2022-07-27T14:31:37.196Z,2.08
2022-07-27T14:41:44.241Z,2.22
2022-07-27T14:51:49.008Z,2.22
2022-07-27T15:01:52.987Z,2.17
2022-07-27T15:11:57.767Z,2.10
2022-07-27T15:22:00.844Z,2.10
2022-07-27T15:32:06.900Z,1.85
2022-07-27T15:42:10.371Z,2.28
2022-07-27T15:52:14.787Z,2.10
2022-07-27T16:02:24.609Z,2.30
2022-07-27T16:12:29.307Z,2.10
2022-07-27T16:22:34.219Z,2.25
2022-07-27T16:32:38.637Z,2.25
2022-07-27T16:42:41.677Z,2.30
2022-07-27T16:52:46.308Z,2.30
2022-07-27T17:02:49.347Z,2.00
2022-07-27T17:12:54.032Z,2.40
2022-07-27T17:22:58.816Z,2.03
2022-07-27T17:33:03.261Z,2.25
2022-07-27T17:43:06.339Z,2.20
2022-07-27T17:53:11.107Z,1.88
2022-07-27T18:03:15.437Z,2.60
2022-07-27T18:13:19.933Z,2.40
2022-07-27T18:23:25.738Z,2.20
2022-07-27T18:33:36.459Z,2.00
2022-07-27T18:43:40.068Z,2.45
2022-07-27T18:53:45.050Z,2.30
2022-07-27T19:03:50.373Z,2.30
2022-07-27T19:13:57.857Z,2.60
2022-07-27T19:24:01.092Z,2.30
2022-07-27T19:34:05.764Z,2.35
2022-07-27T19:44:09.191Z,2.22
2022-07-27T19:54:13.666Z,2.30
2022-07-27T20:04:16.755Z,2.08
2022-07-27T20:14:21.171Z,2.40
2022-07-27T20:24:24.400Z,2.40
2022-07-27T20:34:29.137Z,2.28
2022-07-27T20:44:32.622Z,2.45
2022-07-27T20:54:38.296Z,2.20
2022-07-27T21:04:41.423Z,2.13
2022-07-27T21:14:46.291Z,2.20
2022-07-27T21:24:49.826Z,2.17
2022-07-27T21:34:54.265Z,2.03
2022-07-27T21:44:57.291Z,2.58
2022-07-27T21:55:01.689Z,2.10
2022-07-27T22:05:05.234Z,2.00
2022-07-27T22:15:11.086Z,2.00
2022-07-27T22:25:14.677Z,2.25
2022-07-27T22:35:19.102Z,2.30
2022-07-27T22:45:22.372Z,2.72
2022-07-27T22:55:27.147Z,2.40
2022-07-27T23:05:30.376Z,2.40
2022-07-27T23:15:34.897Z,2.60
2022-07-27T23:25:38.746Z,2.80
2022-07-27T23:35:43.197Z,2.70
2022-07-27T23:45:46.238Z,3.03
2022-07-27T23:55:50.661Z,3.00
